Westchester County Airport
KHPN : now visible

Airfield :











YOU CAN JOIN US ON...

 
LOGIN :

Register | Disclaimer

   EN    FR    IT 

 









Legend :    VFR   Marginal VFR   IFR   Intensive IFR   Very Intensive IFR
Visi :
Ceiling :
>= 8 km
>= 3000ft
5 to 8 km
1000 to 3000 ft
1500m to 5 km
500 to 1000 ft
800 to 1500m
200 to 500 ft
< 800m
< 200 ft
Symbols :   Thunderstorms  Fog  Heavy snow  Heavy precipitations  Wind > 20 kt







- Airport Elevation : 439 ft
- IATA code : HPN


KHPN - Westchester County

CURRENT METAR :
  • 200956Z 30006KT 10SM CLR 11/07 A3024 RMK AO2 SLP241 T01110067

EXPIRED METARs :
  • 200856Z 29007KT 10SM CLR 11/06 A3024 RMK AO2 SLP239 T01110061 55004
  • 200756Z 30008KT 10SM CLR 11/06 A3023 RMK AO2 SLP237 T01110061

TAF KHPN
Valid from the 20 at 09:00 until the 21 at 06:00 UTC


200833Z 2009/2106 VRB03KT P6SM FEW250
FM201400 30005KT P6SM SCT250
FM201900 27007KT P6SM SCT250
FM210100 31003KT P6SM FEW250 AMD NOT SKED
No reported NOTAMs for that airfield.



MET'MAP, your aeronautical weather chart ! - Copyright ORBIFLY December 2007 - Disclaimer

ORBIFLY MET'MAP TEAM :

Programming & Development : Alexandra Zaïnal
Concept & Development : Baudouin d'Aumeries
Co-Development & Prog : Marc-Olivier Méhu
Technical & hardware support : Manuel Goepfert

Contact : metmap@orbifly.com




SOURCES & CREDITS :

   NOAA       Earth
Advisory